createdAt,value
2022-08-14T00:02:01.480Z,5.33
2022-08-14T00:04:34.794Z,5.30
2022-08-14T00:07:10.435Z,5.73
2022-08-14T00:09:55.989Z,5.30
2022-08-14T00:12:33.602Z,5.63
2022-08-14T00:15:10.376Z,5.33
2022-08-14T00:17:48.072Z,6.40
2022-08-14T00:20:30.621Z,6.23
2022-08-14T00:23:12.086Z,6.00
2022-08-14T00:25:53.787Z,6.20
2022-08-14T00:28:35.321Z,5.93
2022-08-14T00:31:04.998Z,5.57
2022-08-14T00:33:50.737Z,5.20
2022-08-14T00:36:37.264Z,4.87
2022-08-14T00:39:18.246Z,5.43
2022-08-14T00:41:47.363Z,5.37
2022-08-14T00:44:21.497Z,5.10
2022-08-14T00:46:59.825Z,5.30
2022-08-14T00:49:30.218Z,5.50
2022-08-14T00:52:00.454Z,5.83
2022-08-14T00:54:28.051Z,5.13
2022-08-14T00:56:56.481Z,5.23
2022-08-14T00:59:25.997Z,5.40
2022-08-14T01:01:58.169Z,4.77
2022-08-14T01:04:37.780Z,5.93
2022-08-14T01:07:20.987Z,4.87
2022-08-14T01:09:51.608Z,5.27
2022-08-14T01:12:27.217Z,4.67
2022-08-14T01:14:58.941Z,6.17
2022-08-14T01:17:51.827Z,5.60
2022-08-14T01:20:41.106Z,4.97
2022-08-14T01:23:16.672Z,4.97
2022-08-14T01:25:51.433Z,5.33
2022-08-14T01:28:46.999Z,5.83
2022-08-14T01:31:12.617Z,5.27
2022-08-14T01:35:15.663Z,5.20
2022-08-14T01:36:38.037Z,5.33
2022-08-14T01:39:13.598Z,4.90
2022-08-14T01:41:44.214Z,4.93
2022-08-14T01:44:32.458Z,5.70
2022-08-14T01:47:12.379Z,5.10
2022-08-14T01:49:59.804Z,4.77
2022-08-14T01:52:34.136Z,4.90
2022-08-14T01:55:25.387Z,5.17
2022-08-14T01:58:02.088Z,5.23
2022-08-14T02:00:43.388Z,5.63
2022-08-14T02:03:16.248Z,8.83
2022-08-14T02:05:44.095Z,5.90
2022-08-14T02:08:11.689Z,5.60
2022-08-14T02:10:46.253Z,5.70
2022-08-14T02:13:16.076Z,5.40
2022-08-14T02:15:44.400Z,5.60
2022-08-14T02:18:15.274Z,5.30
2022-08-14T02:20:42.849Z,5.97
2022-08-14T02:23:11.467Z,5.77
2022-08-14T02:25:39.524Z,5.67
2022-08-14T02:28:22.296Z,5.27
2022-08-14T02:30:56.023Z,5.63
2022-08-14T02:33:24.001Z,5.70
2022-08-14T02:36:01.544Z,5.60
2022-08-14T02:38:41.069Z,5.63
2022-08-14T02:41:13.870Z,5.37
2022-08-14T02:43:46.552Z,5.60
2022-08-14T02:46:20.769Z,5.53
2022-08-14T02:49:03.282Z,4.90
2022-08-14T02:51:34.882Z,5.60
2022-08-14T02:54:07.349Z,5.40
2022-08-14T02:57:15.981Z,5.70
2022-08-14T02:59:33.791Z,5.70
2022-08-14T03:02:03.040Z,5.67
2022-08-14T03:04:30.878Z,6.13
2022-08-14T03:07:07.421Z,5.13
2022-08-14T03:10:26.628Z,5.43
2022-08-14T03:12:31.078Z,5.93
2022-08-14T03:15:16.133Z,5.97
2022-08-14T03:17:57.416Z,5.70
2022-08-14T03:20:27.986Z,5.70
2022-08-14T03:22:57.146Z,5.47
2022-08-14T03:25:24.533Z,5.77
2022-08-14T03:27:58.455Z,5.83
2022-08-14T03:30:39.444Z,5.43
2022-08-14T03:33:11.882Z,5.90
2022-08-14T03:35:59.840Z,5.53
2022-08-14T03:39:14.261Z,5.80
2022-08-14T03:41:23.282Z,5.57
2022-08-14T03:44:01.169Z,5.67
2022-08-14T03:46:51.809Z,5.27
2022-08-14T03:49:24.340Z,5.80
2022-08-14T03:51:57.766Z,6.27
2022-08-14T03:54:26.041Z,5.20
2022-08-14T03:56:54.689Z,5.77
2022-08-14T03:59:22.254Z,5.23
2022-08-14T04:01:53.858Z,5.63
2022-08-14T04:04:29.453Z,5.83
2022-08-14T04:07:01.679Z,6.13
2022-08-14T04:09:29.451Z,5.77
2022-08-14T04:11:58.078Z,5.17
2022-08-14T04:14:28.978Z,5.37
2022-08-14T04:16:58.220Z,6.00
2022-08-14T04:19:28.312Z,5.93
2022-08-14T04:22:03.700Z,5.47
2022-08-14T04:24:38.048Z,5.40
2022-08-14T04:27:09.534Z,5.43
2022-08-14T04:29:38.862Z,5.53
2022-08-14T04:32:57.600Z,5.53
2022-08-14T04:34:57.084Z,6.27
2022-08-14T04:37:45.184Z,6.03
2022-08-14T04:40:32.737Z,5.47
2022-08-14T04:43:21.331Z,5.90
2022-08-14T04:45:51.034Z,6.07
2022-08-14T04:48:39.063Z,5.73
2022-08-14T04:51:12.619Z,5.73
2022-08-14T04:53:43.692Z,6.20
2022-08-14T04:56:31.029Z,6.17
2022-08-14T04:59:10.500Z,6.17
2022-08-14T05:01:41.703Z,5.77
2022-08-14T05:04:19.997Z,6.27
2022-08-14T05:06:50.030Z,7.00
2022-08-14T05:09:22.814Z,6.10
2022-08-14T05:11:51.420Z,6.07
2022-08-14T05:14:43.226Z,6.13
2022-08-14T05:17:10.572Z,6.47
2022-08-14T05:19:44.787Z,6.17
2022-08-14T05:22:27.591Z,7.27
2022-08-14T05:24:54.970Z,6.27
2022-08-14T05:27:23.967Z,6.80
2022-08-14T05:29:57.074Z,7.57
2022-08-14T05:32:26.899Z,6.37
2022-08-14T05:34:58.318Z,6.40
2022-08-14T05:37:28.172Z,6.53
2022-08-14T05:39:56.321Z,6.27
2022-08-14T05:42:29.328Z,6.67
2022-08-14T05:45:11.268Z,6.47
2022-08-14T05:47:41.974Z,6.67
2022-08-14T05:50:18.861Z,6.40
2022-08-14T05:52:48.795Z,6.10
2022-08-14T05:55:21.996Z,5.67
2022-08-14T05:57:54.295Z,6.63
2022-08-14T06:00:28.586Z,7.03
2022-08-14T06:02:58.173Z,6.13
2022-08-14T06:05:29.990Z,6.00
2022-08-14T06:07:58.867Z,6.10
2022-08-14T06:10:28.278Z,6.47
2022-08-14T06:12:58.031Z,5.80
2022-08-14T06:15:30.034Z,5.90
2022-08-14T06:18:00.359Z,5.90
2022-08-14T06:20:31.327Z,5.90
2022-08-14T06:23:02.021Z,5.87
2022-08-14T06:25:31.699Z,6.10
2022-08-14T06:28:02.035Z,5.60
2022-08-14T06:30:46.064Z,5.63
2022-08-14T06:33:15.778Z,5.70
2022-08-14T06:35:46.807Z,6.03
2022-08-14T06:38:17.422Z,6.20
2022-08-14T06:40:46.382Z,5.80
2022-08-14T06:43:15.798Z,5.80
2022-08-14T06:45:50.391Z,5.90
2022-08-14T06:48:24.541Z,6.13
2022-08-14T06:50:54.726Z,5.70
2022-08-14T06:53:28.202Z,5.23
2022-08-14T06:56:00.684Z,5.00
2022-08-14T06:58:32.138Z,5.17
2022-08-14T07:01:26.730Z,5.23
2022-08-14T07:04:22.956Z,5.53
2022-08-14T07:06:55.644Z,5.07
2022-08-14T07:09:40.478Z,5.63
2022-08-14T07:12:54.122Z,6.03
2022-08-14T07:15:04.974Z,5.20
2022-08-14T07:17:34.483Z,5.97
2022-08-14T07:20:07.249Z,5.63
2022-08-14T07:22:56.476Z,4.93
2022-08-14T07:25:32.377Z,4.93
2022-08-14T07:28:01.612Z,6.03
2022-08-14T07:30:34.090Z,5.90
2022-08-14T07:33:03.709Z,5.60
2022-08-14T07:35:42.892Z,5.50
2022-08-14T07:38:18.584Z,5.00
2022-08-14T07:40:48.333Z,5.57
2022-08-14T07:43:23.059Z,6.00
2022-08-14T07:45:53.874Z,6.23
2022-08-14T07:48:24.970Z,5.87
2022-08-14T07:50:56.224Z,5.70
2022-08-14T07:53:36.709Z,5.63
2022-08-14T07:56:21.726Z,5.83
2022-08-14T07:58:58.796Z,5.60
2022-08-14T08:01:29.819Z,5.43
2022-08-14T08:04:03.672Z,6.97
2022-08-14T08:06:31.516Z,5.85
2022-08-14T08:09:03.039Z,5.72
2022-08-14T08:11:34.756Z,5.72
2022-08-14T08:14:10.314Z,5.32
2022-08-14T08:16:38.374Z,6.90
2022-08-14T08:19:13.992Z,5.88
2022-08-14T08:21:43.818Z,5.68
2022-08-14T08:24:18.541Z,5.05
2022-08-14T08:26:47.634Z,5.40
2022-08-14T08:29:24.954Z,5.82
2022-08-14T08:32:01.937Z,6.20
2022-08-14T08:34:45.995Z,6.45
2022-08-14T08:37:14.793Z,5.63
2022-08-14T08:40:03.002Z,6.13
2022-08-14T08:42:38.601Z,6.30
2022-08-14T08:45:12.184Z,5.30
2022-08-14T08:47:40.627Z,6.07
2022-08-14T08:50:31.116Z,6.30
2022-08-14T08:53:02.398Z,5.43
2022-08-14T08:55:35.367Z,5.88
2022-08-14T08:58:12.774Z,5.85
2022-08-14T09:00:49.061Z,5.75
2022-08-14T09:03:21.585Z,5.65
2022-08-14T09:05:56.166Z,6.05
2022-08-14T09:08:30.864Z,6.00
2022-08-14T09:11:18.980Z,6.22
2022-08-14T09:13:51.585Z,5.88
2022-08-14T09:16:23.549Z,6.28
2022-08-14T09:18:53.335Z,6.25
2022-08-14T09:21:24.296Z,5.93
2022-08-14T09:24:29.501Z,5.70
2022-08-14T09:26:48.876Z,6.20
2022-08-14T09:29:23.232Z,6.55
2022-08-14T09:31:57.520Z,6.43
2022-08-14T09:34:58.737Z,6.20
2022-08-14T09:37:47.598Z,6.32
2022-08-14T09:40:37.213Z,6.22
2022-08-14T09:43:30.186Z,5.85
2022-08-14T09:46:02.500Z,6.60
2022-08-14T09:48:31.306Z,6.28
2022-08-14T09:54:17.680Z,7.18
2022-08-14T09:56:31.205Z,6.03
2022-08-14T09:59:16.624Z,7.25
2022-08-14T10:01:46.320Z,6.35
2022-08-14T10:04:34.711Z,6.80
2022-08-14T10:07:05.588Z,7.30
2022-08-14T10:09:35.114Z,6.78
2022-08-14T10:12:06.776Z,6.30
2022-08-14T10:14:53.242Z,6.32
2022-08-14T10:17:27.460Z,5.95
2022-08-14T10:19:58.044Z,6.55
2022-08-14T10:23:12.979Z,6.57
2022-08-14T10:25:18.931Z,6.13
2022-08-14T10:27:57.731Z,6.47
2022-08-14T10:30:38.407Z,6.45
2022-08-14T10:33:07.127Z,6.13
2022-08-14T10:35:47.802Z,6.68
2022-08-14T10:38:31.838Z,5.85
2022-08-14T10:41:12.831Z,6.28
2022-08-14T10:43:42.403Z,6.20
2022-08-14T10:47:13.206Z,6.28
2022-08-14T10:49:05.203Z,6.88
2022-08-14T10:51:36.364Z,6.53
2022-08-14T10:54:35.181Z,6.28
2022-08-14T10:56:59.109Z,6.13
2022-08-14T10:59:31.334Z,6.82
2022-08-14T11:02:17.618Z,6.65
2022-08-14T11:05:07.428Z,6.18
2022-08-14T11:07:39.783Z,6.63
2022-08-14T11:10:10.572Z,6.43
2022-08-14T11:12:48.045Z,6.35
2022-08-14T11:15:19.783Z,6.32
2022-08-14T11:17:51.261Z,6.53
2022-08-14T11:20:23.950Z,6.60
2022-08-14T11:22:57.853Z,6.65
2022-08-14T11:25:44.002Z,5.85
2022-08-14T11:28:46.257Z,6.65
2022-08-14T11:31:17.075Z,5.55
2022-08-14T11:33:51.215Z,5.95
2022-08-14T11:36:23.614Z,6.40
2022-08-14T11:38:51.538Z,6.00
2022-08-14T11:41:21.513Z,6.80
2022-08-14T11:43:58.229Z,6.40
2022-08-14T11:46:30.753Z,6.35
2022-08-14T11:49:06.935Z,6.43
2022-08-14T11:51:54.424Z,6.45
2022-08-14T11:54:34.986Z,6.82
2022-08-14T11:57:04.675Z,6.05
2022-08-14T11:59:35.411Z,6.70
2022-08-14T12:02:39.097Z,6.68
2022-08-14T12:05:06.027Z,5.55
2022-08-14T12:07:48.588Z,6.13
2022-08-14T12:10:26.708Z,6.43
2022-08-14T12:13:17.356Z,5.45
2022-08-14T12:15:51.374Z,6.50
2022-08-14T12:18:32.350Z,6.35
2022-08-14T12:21:15.924Z,6.53
2022-08-14T12:24:01.912Z,5.72
2022-08-14T12:26:39.206Z,6.20
2022-08-14T12:29:11.118Z,5.80
2022-08-14T12:31:44.745Z,6.60
2022-08-14T12:34:20.419Z,6.53
2022-08-14T12:37:05.713Z,6.28
2022-08-14T12:39:39.673Z,6.60
2022-08-14T12:42:08.602Z,7.28
2022-08-14T12:44:44.158Z,7.30
2022-08-14T12:47:17.830Z,6.45
2022-08-14T12:49:52.705Z,7.10
2022-08-14T12:52:43.006Z,6.40
2022-08-14T12:55:21.773Z,6.93
2022-08-14T12:57:53.390Z,6.65
2022-08-14T13:00:24.580Z,6.38
2022-08-14T13:02:55.820Z,5.47
2022-08-14T13:05:29.067Z,6.15
2022-08-14T13:07:59.525Z,6.53
2022-08-14T13:10:46.656Z,7.63
2022-08-14T13:13:20.466Z,6.68
2022-08-14T13:15:57.231Z,6.57
2022-08-14T13:18:28.203Z,6.47
2022-08-14T13:21:01.102Z,5.95
2022-08-14T13:23:36.129Z,6.57
2022-08-14T13:26:04.724Z,6.47
2022-08-14T13:28:37.536Z,6.30
2022-08-14T13:31:13.140Z,6.70
2022-08-14T13:33:41.881Z,6.60
2022-08-14T13:36:11.005Z,6.18
2022-08-14T13:38:54.072Z,6.50
2022-08-14T13:41:28.008Z,6.75
2022-08-14T13:44:00.675Z,6.30
2022-08-14T13:46:28.275Z,6.55
2022-08-14T13:48:59.962Z,6.10
2022-08-14T13:51:38.216Z,5.85
2022-08-14T13:54:10.870Z,5.63
2022-08-14T13:56:41.000Z,6.10
2022-08-14T13:59:10.732Z,6.70
2022-08-14T14:01:43.955Z,6.63
2022-08-14T14:04:19.254Z,6.88
2022-08-14T14:06:50.798Z,6.28
2022-08-14T14:09:32.253Z,6.60
2022-08-14T14:12:01.241Z,6.53
2022-08-14T14:14:50.989Z,6.75
2022-08-14T14:17:24.431Z,6.20
2022-08-14T14:19:52.775Z,6.90
2022-08-14T14:23:00.953Z,6.38
2022-08-14T14:25:10.790Z,6.00
2022-08-14T14:27:42.526Z,6.07
2022-08-14T14:30:46.903Z,5.38
2022-08-14T14:33:11.173Z,5.65
2022-08-14T14:35:52.642Z,6.30
2022-08-14T14:38:21.176Z,6.65
2022-08-14T14:41:00.798Z,6.75
2022-08-14T14:43:29.579Z,6.68
2022-08-14T14:45:57.906Z,6.15
2022-08-14T14:48:29.504Z,5.82
2022-08-14T14:51:01.515Z,5.50
2022-08-14T14:53:38.728Z,5.70
2022-08-14T14:56:50.109Z,5.32
2022-08-14T14:58:58.332Z,5.78
2022-08-14T15:01:26.028Z,6.00
2022-08-14T15:03:55.538Z,6.43
2022-08-14T15:06:30.380Z,6.03
2022-08-14T15:09:01.884Z,6.20
2022-08-14T15:11:33.566Z,6.60
2022-08-14T15:14:01.022Z,7.25
2022-08-14T15:16:28.897Z,6.43
2022-08-14T15:18:56.307Z,6.35
2022-08-14T15:21:25.062Z,6.32
2022-08-14T15:23:53.036Z,6.65
2022-08-14T15:26:30.976Z,5.90
2022-08-14T15:29:05.736Z,6.10
2022-08-14T15:31:36.617Z,6.32
2022-08-14T15:34:44.603Z,5.65
2022-08-14T15:37:00.147Z,5.97
2022-08-14T15:39:29.519Z,6.18
2022-08-14T15:42:14.758Z,5.63
2022-08-14T15:44:56.960Z,6.07
2022-08-14T15:47:28.176Z,6.32
2022-08-14T15:49:59.641Z,5.40
2022-08-14T15:52:34.361Z,5.72
2022-08-14T15:55:06.216Z,6.60
2022-08-14T15:57:34.290Z,6.03
2022-08-14T16:00:41.755Z,6.03
2022-08-14T16:03:14.289Z,6.40
2022-08-14T16:05:43.633Z,6.00
2022-08-14T16:08:28.667Z,6.43
2022-08-14T16:10:59.742Z,6.32
2022-08-14T16:13:42.118Z,5.63
2022-08-14T16:16:47.628Z,6.40
2022-08-14T16:19:10.273Z,6.00
2022-08-14T16:22:02.274Z,6.15
2022-08-14T16:24:33.271Z,6.50
2022-08-14T16:27:01.890Z,6.10
2022-08-14T16:29:36.604Z,6.93
2022-08-14T16:32:33.452Z,6.10
2022-08-14T16:34:58.014Z,5.80
2022-08-14T16:37:33.898Z,6.65
2022-08-14T16:40:03.653Z,5.97
2022-08-14T16:43:02.633Z,6.70
2022-08-14T16:45:27.552Z,6.35
2022-08-14T16:47:57.132Z,5.85
2022-08-14T16:50:40.091Z,6.47
2022-08-14T16:53:11.846Z,7.25
2022-08-14T16:55:53.272Z,6.35
2022-08-14T16:58:30.340Z,5.95
2022-08-14T17:01:24.564Z,5.95
2022-08-14T17:04:04.693Z,6.72
2022-08-14T17:06:48.382Z,6.50
2022-08-14T17:09:35.502Z,7.05
2022-08-14T17:12:28.594Z,6.55
2022-08-14T17:15:10.488Z,6.68
2022-08-14T17:17:57.651Z,6.45
2022-08-14T17:20:53.810Z,6.30
2022-08-14T17:23:15.229Z,6.57
2022-08-14T17:25:50.973Z,6.22
2022-08-14T17:28:51.303Z,6.25
2022-08-14T17:31:10.013Z,6.10
2022-08-14T17:33:40.701Z,6.80
2022-08-14T17:36:20.791Z,6.28
2022-08-14T17:39:06.304Z,5.68
2022-08-14T17:41:38.671Z,6.72
2022-08-14T17:44:33.476Z,6.23
2022-08-14T17:47:06.524Z,6.25
2022-08-14T17:49:40.399Z,6.57
2022-08-14T17:52:18.396Z,6.40
2022-08-14T17:55:01.660Z,6.95
2022-08-14T17:57:45.450Z,5.72
2022-08-14T18:00:17.370Z,6.47
2022-08-14T18:02:51.134Z,6.35
2022-08-14T18:05:23.367Z,6.37
2022-08-14T18:08:32.776Z,6.80
2022-08-14T18:11:00.307Z,6.03
2022-08-14T18:13:49.662Z,7.33
2022-08-14T18:16:20.602Z,6.20
2022-08-14T18:18:51.501Z,5.80
2022-08-14T18:21:41.044Z,7.77
2022-08-14T18:24:20.285Z,7.60
2022-08-14T18:27:09.169Z,7.33
2022-08-14T18:29:54.799Z,7.20
2022-08-14T18:32:47.616Z,6.40
2022-08-14T18:35:56.824Z,6.17
2022-08-14T18:38:43.135Z,6.63
2022-08-14T18:41:37.551Z,7.23
2022-08-14T18:44:10.827Z,6.20
2022-08-14T18:47:20.742Z,6.97
2022-08-14T18:50:26.038Z,7.00
2022-08-14T18:52:53.963Z,6.70
2022-08-14T18:55:53.532Z,7.00
2022-08-14T18:58:31.028Z,6.30
2022-08-14T19:01:00.858Z,6.83
2022-08-14T19:04:00.862Z,5.57
2022-08-14T19:06:56.315Z,6.87
2022-08-14T19:09:54.679Z,7.60
2022-08-14T19:13:00.452Z,6.30
2022-08-14T19:15:32.740Z,7.43
2022-08-14T19:18:14.366Z,7.33
2022-08-14T19:20:52.800Z,7.13
2022-08-14T19:23:42.360Z,7.33
2022-08-14T19:26:35.688Z,7.30
2022-08-14T19:29:38.365Z,7.30
2022-08-14T19:32:41.470Z,7.40
2022-08-14T19:35:55.701Z,7.27
2022-08-14T19:38:48.402Z,7.37
2022-08-14T19:41:25.055Z,8.17
2022-08-14T19:44:10.512Z,7.37
2022-08-14T19:47:01.860Z,7.00
2022-08-14T19:50:25.093Z,7.03
2022-08-14T19:52:25.584Z,7.40
2022-08-14T19:54:54.318Z,6.50
2022-08-14T19:57:24.616Z,7.20
2022-08-14T20:00:04.628Z,6.93
2022-08-14T20:02:37.652Z,6.77
2022-08-14T20:05:12.231Z,7.83
2022-08-14T20:07:58.911Z,7.87
2022-08-14T20:11:11.322Z,8.27
2022-08-14T20:13:32.746Z,8.07
2022-08-14T20:16:12.510Z,7.63
2022-08-14T20:18:51.758Z,8.93
2022-08-14T20:21:23.814Z,8.90
2022-08-14T20:24:30.888Z,8.30
2022-08-14T20:27:24.925Z,7.50
2022-08-14T20:30:32.830Z,7.33
2022-08-14T20:33:07.466Z,7.80
2022-08-14T20:35:41.848Z,8.53
2022-08-14T20:38:30.855Z,8.17
2022-08-14T20:41:06.593Z,8.60
2022-08-14T20:43:55.829Z,8.03
2022-08-14T20:46:29.638Z,8.10
2022-08-14T20:49:00.662Z,7.87
2022-08-14T20:51:43.535Z,7.93
2022-08-14T20:54:34.122Z,7.70
2022-08-14T20:57:09.804Z,7.53
2022-08-14T20:59:43.490Z,8.70
2022-08-14T21:02:38.776Z,9.20
2022-08-14T21:05:33.794Z,9.17
2022-08-14T21:08:08.105Z,8.33
2022-08-14T21:10:44.178Z,8.60
2022-08-14T21:14:09.204Z,8.37
2022-08-14T21:16:33.725Z,7.47
2022-08-14T21:19:00.006Z,8.47
2022-08-14T21:21:40.559Z,8.50
2022-08-14T21:24:40.182Z,8.40
2022-08-14T21:27:13.241Z,8.57
2022-08-14T21:29:54.065Z,8.70
2022-08-14T21:32:35.756Z,8.10
2022-08-14T21:35:09.915Z,8.20
2022-08-14T21:37:44.099Z,8.00
2022-08-14T21:40:40.789Z,8.37
2022-08-14T21:43:00.412Z,8.80
2022-08-14T21:45:27.802Z,7.80
2022-08-14T21:47:56.406Z,8.60
2022-08-14T21:51:00.343Z,7.73
2022-08-14T21:53:14.742Z,8.50
2022-08-14T21:55:43.543Z,8.10
2022-08-14T21:58:52.546Z,7.33
2022-08-14T22:00:58.741Z,7.20
2022-08-14T22:03:26.347Z,8.43
2022-08-14T22:06:04.658Z,7.40
2022-08-14T22:08:38.352Z,7.50
2022-08-14T22:11:07.341Z,8.53
2022-08-14T22:13:46.471Z,7.83
2022-08-14T22:17:01.527Z,7.43
2022-08-14T22:19:03.711Z,8.00
2022-08-14T22:21:33.425Z,7.37
2022-08-14T22:24:01.894Z,7.80
2022-08-14T22:26:44.712Z,7.63
2022-08-14T22:29:15.010Z,7.00
2022-08-14T22:31:46.197Z,6.73
2022-08-14T22:34:16.994Z,7.10
2022-08-14T22:36:48.643Z,6.97
2022-08-14T22:39:17.166Z,6.63
2022-08-14T22:41:55.824Z,6.60
2022-08-14T22:44:29.188Z,6.87
2022-08-14T22:46:57.668Z,6.10
2022-08-14T22:50:31.463Z,6.17
2022-08-14T22:52:31.669Z,6.43
2022-08-14T22:55:05.739Z,6.03
2022-08-14T22:57:37.815Z,6.03
2022-08-14T23:00:15.069Z,6.60
2022-08-14T23:02:44.954Z,6.30
2022-08-14T23:05:15.275Z,6.80
2022-08-14T23:08:59.207Z,6.53
2022-08-14T23:10:34.770Z,6.60
2022-08-14T23:13:06.758Z,7.03
2022-08-14T23:15:37.541Z,6.63
2022-08-14T23:18:05.985Z,5.83
2022-08-14T23:20:33.851Z,6.17
2022-08-14T23:23:13.074Z,6.07
2022-08-14T23:25:59.779Z,5.90
2022-08-14T23:28:56.573Z,6.50
2022-08-14T23:31:34.468Z,6.33
2022-08-14T23:34:06.730Z,5.03
2022-08-14T23:36:53.606Z,6.00
2022-08-14T23:39:29.496Z,5.90
2022-08-14T23:42:02.555Z,6.00
2022-08-14T23:44:34.964Z,5.77
2022-08-14T23:47:10.637Z,5.97
2022-08-14T23:50:00.990Z,5.27
2022-08-14T23:52:57.458Z,5.93
2022-08-14T23:55:17.945Z,6.07
2022-08-14T23:57:58.010Z,5.63
